sensor_id;sensor_type;location;lat;lon;timestamp;pressure;altitude;pressure_sealevel;temperature;humidity
19286;BME280;9776;50.798;6.430;2023-08-17T00:01:05;100443.03;;;21.68;74.91
19286;BME280;9776;50.798;6.430;2023-08-17T00:03:32;100455.25;;;21.64;75.15
19286;BME280;9776;50.798;6.430;2023-08-17T00:05:58;100449.50;;;21.60;75.01
19286;BME280;9776;50.798;6.430;2023-08-17T00:08:27;100454.47;;;21.57;75.12
19286;BME280;9776;50.798;6.430;2023-08-17T00:10:53;100453.66;;;21.56;75.20
19286;BME280;9776;50.798;6.430;2023-08-17T00:13:20;100460.91;;;21.56;75.16
19286;BME280;9776;50.798;6.430;2023-08-17T00:15:46;100457.78;;;21.59;75.24
19286;BME280;9776;50.798;6.430;2023-08-17T00:18:13;100456.09;;;21.64;74.98
19286;BME280;9776;50.798;6.430;2023-08-17T00:20:39;100456.41;;;21.74;74.51
19286;BME280;9776;50.798;6.430;2023-08-17T00:23:06;100458.47;;;21.79;74.39
19286;BME280;9776;50.798;6.430;2023-08-17T00:25:34;100455.81;;;21.72;74.41
19286;BME280;9776;50.798;6.430;2023-08-17T00:28:01;100466.66;;;21.59;74.77
19286;BME280;9776;50.798;6.430;2023-08-17T00:30:27;100464.88;;;21.46;75.14
19286;BME280;9776;50.798;6.430;2023-08-17T00:32:54;100465.75;;;21.40;75.25
19286;BME280;9776;50.798;6.430;2023-08-17T00:35:21;100465.59;;;21.35;75.37
19286;BME280;9776;50.798;6.430;2023-08-17T00:37:47;100469.06;;;21.36;75.12
19286;BME280;9776;50.798;6.430;2023-08-17T00:40:14;100465.34;;;21.37;75.19
19286;BME280;9776;50.798;6.430;2023-08-17T00:42:42;100467.00;;;21.38;75.01
19286;BME280;9776;50.798;6.430;2023-08-17T00:45:09;100458.16;;;21.31;75.12
19286;BME280;9776;50.798;6.430;2023-08-17T00:47:36;100461.50;;;21.26;75.31
19286;BME280;9776;50.798;6.430;2023-08-17T00:50:04;100465.81;;;21.27;75.05
19286;BME280;9776;50.798;6.430;2023-08-17T00:52:32;100468.50;;;21.27;75.01
19286;BME280;9776;50.798;6.430;2023-08-17T00:55:00;100468.94;;;21.24;74.91
19286;BME280;9776;50.798;6.430;2023-08-17T00:57:27;100472.47;;;21.18;75.19
19286;BME280;9776;50.798;6.430;2023-08-17T00:59:56;100468.16;;;21.17;75.13
19286;BME280;9776;50.798;6.430;2023-08-17T01:02:22;100470.00;;;21.17;74.91
19286;BME280;9776;50.798;6.430;2023-08-17T01:04:49;100465.91;;;21.14;75.08
19286;BME280;9776;50.798;6.430;2023-08-17T01:07:16;100463.66;;;21.11;75.20
19286;BME280;9776;50.798;6.430;2023-08-17T01:09:42;100457.69;;;21.09;75.24
19286;BME280;9776;50.798;6.430;2023-08-17T01:12:16;100448.97;;;21.07;75.18
19286;BME280;9776;50.798;6.430;2023-08-17T01:14:50;100458.50;;;21.03;75.17
19286;BME280;9776;50.798;6.430;2023-08-17T01:17:23;100460.56;;;21.01;75.43
19286;BME280;9776;50.798;6.430;2023-08-17T01:19:51;100456.66;;;20.97;75.38
19286;BME280;9776;50.798;6.430;2023-08-17T01:22:21;100451.31;;;20.97;75.22
19286;BME280;9776;50.798;6.430;2023-08-17T01:24:49;100449.88;;;20.94;75.61
19286;BME280;9776;50.798;6.430;2023-08-17T01:27:22;100448.22;;;20.93;75.80
19286;BME280;9776;50.798;6.430;2023-08-17T01:29:49;100444.88;;;20.98;75.63
19286;BME280;9776;50.798;6.430;2023-08-17T01:32:20;100438.28;;;21.01;75.52
19286;BME280;9776;50.798;6.430;2023-08-17T01:34:51;100442.81;;;21.00;75.68
19286;BME280;9776;50.798;6.430;2023-08-17T01:37:21;100449.03;;;21.01;75.65
19286;BME280;9776;50.798;6.430;2023-08-17T01:39:55;100444.28;;;20.96;75.57
19286;BME280;9776;50.798;6.430;2023-08-17T01:42:23;100443.69;;;20.94;75.94
19286;BME280;9776;50.798;6.430;2023-08-17T01:44:51;100435.22;;;20.90;75.94
19286;BME280;9776;50.798;6.430;2023-08-17T01:47:20;100435.88;;;20.86;75.99
19286;BME280;9776;50.798;6.430;2023-08-17T01:49:47;100442.69;;;20.82;76.29
19286;BME280;9776;50.798;6.430;2023-08-17T01:52:13;100439.19;;;20.81;76.21
19286;BME280;9776;50.798;6.430;2023-08-17T01:54:40;100440.00;;;20.82;76.38
19286;BME280;9776;50.798;6.430;2023-08-17T01:57:08;100442.88;;;20.87;76.24
19286;BME280;9776;50.798;6.430;2023-08-17T01:59:35;100453.19;;;20.90;76.18
19286;BME280;9776;50.798;6.430;2023-08-17T02:02:01;100439.72;;;21.03;75.83
19286;BME280;9776;50.798;6.430;2023-08-17T02:04:28;100435.97;;;21.04;75.79
19286;BME280;9776;50.798;6.430;2023-08-17T02:06:54;100436.22;;;21.09;75.55
19286;BME280;9776;50.798;6.430;2023-08-17T02:09:21;100431.19;;;21.19;75.24
19286;BME280;9776;50.798;6.430;2023-08-17T02:11:48;100433.66;;;21.21;75.10
19286;BME280;9776;50.798;6.430;2023-08-17T02:14:16;100432.84;;;21.20;75.23
19286;BME280;9776;50.798;6.430;2023-08-17T02:16:42;100437.53;;;21.25;75.00
19286;BME280;9776;50.798;6.430;2023-08-17T02:19:09;100433.16;;;21.30;74.77
19286;BME280;9776;50.798;6.430;2023-08-17T02:21:35;100444.09;;;21.35;74.35
19286;BME280;9776;50.798;6.430;2023-08-17T02:24:02;100441.78;;;21.39;74.16
19286;BME280;9776;50.798;6.430;2023-08-17T02:26:29;100433.72;;;21.39;73.91
19286;BME280;9776;50.798;6.430;2023-08-17T02:28:56;100443.22;;;21.41;73.53
19286;BME280;9776;50.798;6.430;2023-08-17T02:31:24;100437.63;;;21.43;73.29
19286;BME280;9776;50.798;6.430;2023-08-17T02:33:50;100434.34;;;21.41;73.15
19286;BME280;9776;50.798;6.430;2023-08-17T02:36:17;100424.41;;;21.41;72.86
19286;BME280;9776;50.798;6.430;2023-08-17T02:38:44;100429.78;;;21.41;72.71
19286;BME280;9776;50.798;6.430;2023-08-17T02:41:10;100429.00;;;21.41;72.68
19286;BME280;9776;50.798;6.430;2023-08-17T02:43:37;100427.94;;;21.42;72.42
19286;BME280;9776;50.798;6.430;2023-08-17T02:46:04;100419.28;;;21.40;72.31
19286;BME280;9776;50.798;6.430;2023-08-17T02:48:33;100421.53;;;21.43;72.30
19286;BME280;9776;50.798;6.430;2023-08-17T02:51:00;100420.69;;;21.42;72.21
19286;BME280;9776;50.798;6.430;2023-08-17T02:53:27;100420.94;;;21.41;72.15
19286;BME280;9776;50.798;6.430;2023-08-17T02:55:53;100430.00;;;21.40;72.31
19286;BME280;9776;50.798;6.430;2023-08-17T02:58:20;100427.38;;;21.33;72.42
19286;BME280;9776;50.798;6.430;2023-08-17T03:00:47;100421.00;;;21.28;72.73
19286;BME280;9776;50.798;6.430;2023-08-17T03:03:13;100426.38;;;21.28;72.79
19286;BME280;9776;50.798;6.430;2023-08-17T03:05:41;100425.38;;;21.22;72.66
19286;BME280;9776;50.798;6.430;2023-08-17T03:08:08;100424.38;;;21.17;73.07
19286;BME280;9776;50.798;6.430;2023-08-17T03:10:34;100422.97;;;21.14;73.21
19286;BME280;9776;50.798;6.430;2023-08-17T03:13:01;100418.44;;;21.08;73.26
19286;BME280;9776;50.798;6.430;2023-08-17T03:15:28;100418.84;;;21.05;73.53
19286;BME280;9776;50.798;6.430;2023-08-17T03:17:54;100408.38;;;20.97;73.77
19286;BME280;9776;50.798;6.430;2023-08-17T03:20:21;100405.50;;;20.92;73.85
19286;BME280;9776;50.798;6.430;2023-08-17T03:22:49;100404.88;;;20.90;74.09
19286;BME280;9776;50.798;6.430;2023-08-17T03:25:16;100403.69;;;20.86;74.11
19286;BME280;9776;50.798;6.430;2023-08-17T03:27:44;100399.38;;;20.78;74.31
19286;BME280;9776;50.798;6.430;2023-08-17T03:30:10;100403.72;;;20.73;74.63
19286;BME280;9776;50.798;6.430;2023-08-17T03:32:37;100398.78;;;20.70;74.54
19286;BME280;9776;50.798;6.430;2023-08-17T03:35:05;100394.69;;;20.67;74.62
19286;BME280;9776;50.798;6.430;2023-08-17T03:37:31;100402.31;;;20.64;74.73
19286;BME280;9776;50.798;6.430;2023-08-17T03:39:59;100410.00;;;20.60;74.91
19286;BME280;9776;50.798;6.430;2023-08-17T03:42:26;100409.38;;;20.58;74.96
19286;BME280;9776;50.798;6.430;2023-08-17T03:44:53;100406.47;;;20.60;75.21
19286;BME280;9776;50.798;6.430;2023-08-17T03:47:20;100412.88;;;20.59;75.07
19286;BME280;9776;50.798;6.430;2023-08-17T03:49:46;100413.28;;;20.56;75.23
19286;BME280;9776;50.798;6.430;2023-08-17T03:52:13;100417.66;;;20.50;75.49
19286;BME280;9776;50.798;6.430;2023-08-17T03:54:39;100419.91;;;20.53;75.60
19286;BME280;9776;50.798;6.430;2023-08-17T03:57:07;100419.47;;;20.56;75.65
19286;BME280;9776;50.798;6.430;2023-08-17T03:59:34;100421.56;;;20.54;75.56
19286;BME280;9776;50.798;6.430;2023-08-17T04:02:01;100420.94;;;20.52;75.66
19286;BME280;9776;50.798;6.430;2023-08-17T04:04:27;100424.03;;;20.49;75.93
19286;BME280;9776;50.798;6.430;2023-08-17T04:06:54;100429.81;;;20.46;75.91
19286;BME280;9776;50.798;6.430;2023-08-17T04:09:20;100433.16;;;20.42;76.10
19286;BME280;9776;50.798;6.430;2023-08-17T04:11:47;100426.34;;;20.46;76.17
19286;BME280;9776;50.798;6.430;2023-08-17T04:14:15;100434.31;;;20.59;75.65
19286;BME280;9776;50.798;6.430;2023-08-17T04:16:42;100433.91;;;20.62;75.64
19286;BME280;9776;50.798;6.430;2023-08-17T04:19:08;100441.34;;;20.60;75.72
19286;BME280;9776;50.798;6.430;2023-08-17T04:21:35;100431.47;;;20.54;75.96
19286;BME280;9776;50.798;6.430;2023-08-17T04:24:02;100440.53;;;20.53;76.02
19286;BME280;9776;50.798;6.430;2023-08-17T04:26:29;100437.66;;;20.48;76.19
19286;BME280;9776;50.798;6.430;2023-08-17T04:28:55;100439.34;;;20.42;76.26
19286;BME280;9776;50.798;6.430;2023-08-17T04:31:23;100443.25;;;20.40;76.48
19286;BME280;9776;50.798;6.430;2023-08-17T04:33:50;100454.41;;;20.36;76.60
19286;BME280;9776;50.798;6.430;2023-08-17T04:36:18;100448.44;;;20.34;76.57
19286;BME280;9776;50.798;6.430;2023-08-17T04:38:44;100446.38;;;20.30;76.76
19286;BME280;9776;50.798;6.430;2023-08-17T04:41:11;100456.28;;;20.23;76.80
19286;BME280;9776;50.798;6.430;2023-08-17T04:43:37;100445.56;;;20.16;77.05
19286;BME280;9776;50.798;6.430;2023-08-17T04:46:04;100458.34;;;20.14;77.11
19286;BME280;9776;50.798;6.430;2023-08-17T04:48:32;100450.69;;;20.18;76.96
19286;BME280;9776;50.798;6.430;2023-08-17T04:50:58;100456.03;;;20.18;76.99
19286;BME280;9776;50.798;6.430;2023-08-17T04:53:25;100457.47;;;20.20;76.89
19286;BME280;9776;50.798;6.430;2023-08-17T04:55:52;100454.63;;;20.28;76.35
19286;BME280;9776;50.798;6.430;2023-08-17T04:58:19;100450.06;;;20.35;76.32
19286;BME280;9776;50.798;6.430;2023-08-17T05:00:46;100446.78;;;20.33;76.19
19286;BME280;9776;50.798;6.430;2023-08-17T05:03:13;100447.19;;;20.30;76.10
19286;BME280;9776;50.798;6.430;2023-08-17T05:05:41;100452.56;;;20.37;75.97
19286;BME280;9776;50.798;6.430;2023-08-17T05:08:07;100461.22;;;20.32;75.92
19286;BME280;9776;50.798;6.430;2023-08-17T05:10:34;100458.13;;;20.29;76.08
19286;BME280;9776;50.798;6.430;2023-08-17T05:13:01;100461.22;;;20.26;76.11
19286;BME280;9776;50.798;6.430;2023-08-17T05:15:27;100469.03;;;20.21;76.38
19286;BME280;9776;50.798;6.430;2023-08-17T05:17:54;100463.25;;;20.17;76.27
19286;BME280;9776;50.798;6.430;2023-08-17T05:20:20;100464.09;;;20.18;76.31
19286;BME280;9776;50.798;6.430;2023-08-17T05:22:48;100462.03;;;20.20;75.99
19286;BME280;9776;50.798;6.430;2023-08-17T05:25:15;100469.06;;;20.08;76.18
19286;BME280;9776;50.798;6.430;2023-08-17T05:27:42;100463.88;;;20.06;76.05
19286;BME280;9776;50.798;6.430;2023-08-17T05:30:09;100463.91;;;20.00;76.27
19286;BME280;9776;50.798;6.430;2023-08-17T05:32:35;100468.44;;;19.99;76.46
19286;BME280;9776;50.798;6.430;2023-08-17T05:35:02;100468.03;;;20.02;75.97
19286;BME280;9776;50.798;6.430;2023-08-17T05:37:29;100466.56;;;20.06;76.01
19286;BME280;9776;50.798;6.430;2023-08-17T05:39:57;100468.44;;;20.12;75.87
19286;BME280;9776;50.798;6.430;2023-08-17T05:42:24;100476.47;;;20.19;75.65
19286;BME280;9776;50.798;6.430;2023-08-17T05:44:50;100465.09;;;20.23;75.32
19286;BME280;9776;50.798;6.430;2023-08-17T05:47:17;100473.41;;;20.28;75.02
19286;BME280;9776;50.798;6.430;2023-08-17T05:49:44;100474.19;;;20.35;74.71
19286;BME280;9776;50.798;6.430;2023-08-17T05:52:11;100469.03;;;20.41;74.56
19286;BME280;9776;50.798;6.430;2023-08-17T05:54:38;100470.03;;;20.46;74.28
19286;BME280;9776;50.798;6.430;2023-08-17T05:57:07;100466.34;;;20.41;74.40
19286;BME280;9776;50.798;6.430;2023-08-17T05:59:33;100470.50;;;20.36;74.50
19286;BME280;9776;50.798;6.430;2023-08-17T06:02:00;100475.66;;;20.31;74.68
19286;BME280;9776;50.798;6.430;2023-08-17T06:04:27;100481.41;;;20.35;74.47
19286;BME280;9776;50.798;6.430;2023-08-17T06:06:53;100483.06;;;20.36;74.27
19286;BME280;9776;50.798;6.430;2023-08-17T06:09:21;100487.59;;;20.35;74.39
19286;BME280;9776;50.798;6.430;2023-08-17T06:11:47;100483.06;;;20.43;74.30
19286;BME280;9776;50.798;6.430;2023-08-17T06:14:15;100477.06;;;20.47;73.99
19286;BME280;9776;50.798;6.430;2023-08-17T06:16:42;100483.84;;;20.50;74.11
19286;BME280;9776;50.798;6.430;2023-08-17T06:19:08;100486.31;;;20.58;73.78
19286;BME280;9776;50.798;6.430;2023-08-17T06:21:35;100484.66;;;20.63;73.59
19286;BME280;9776;50.798;6.430;2023-08-17T06:24:02;100482.16;;;20.68;73.36
19286;BME280;9776;50.798;6.430;2023-08-17T06:26:29;100481.09;;;20.76;73.16
19286;BME280;9776;50.798;6.430;2023-08-17T06:28:56;100488.31;;;20.82;72.81
19286;BME280;9776;50.798;6.430;2023-08-17T06:31:24;100491.81;;;20.82;72.50
19286;BME280;9776;50.798;6.430;2023-08-17T06:33:52;100488.72;;;20.85;72.43
19286;BME280;9776;50.798;6.430;2023-08-17T06:36:19;100485.38;;;20.90;72.25
19286;BME280;9776;50.798;6.430;2023-08-17T06:38:46;100483.31;;;20.92;72.13
19286;BME280;9776;50.798;6.430;2023-08-17T06:41:12;100491.97;;;20.94;71.83
19286;BME280;9776;50.798;6.430;2023-08-17T06:43:39;100481.00;;;20.95;71.75
19286;BME280;9776;50.798;6.430;2023-08-17T06:46:06;100487.81;;;20.98;71.63
19286;BME280;9776;50.798;6.430;2023-08-17T06:48:34;100480.59;;;20.99;71.56
19286;BME280;9776;50.798;6.430;2023-08-17T06:51:00;100479.75;;;20.98;71.45
19286;BME280;9776;50.798;6.430;2023-08-17T06:53:28;100482.03;;;21.01;71.25
19286;BME280;9776;50.798;6.430;2023-08-17T06:55:54;100481.00;;;21.02;71.18
19286;BME280;9776;50.798;6.430;2023-08-17T06:58:21;100483.25;;;21.05;71.26
19286;BME280;9776;50.798;6.430;2023-08-17T07:00:47;100485.53;;;21.08;70.94
19286;BME280;9776;50.798;6.430;2023-08-17T07:03:14;100490.47;;;21.05;70.82
19286;BME280;9776;50.798;6.430;2023-08-17T07:05:42;100490.91;;;21.08;70.86
19286;BME280;9776;50.798;6.430;2023-08-17T07:08:09;100495.03;;;21.11;70.76
19286;BME280;9776;50.798;6.430;2023-08-17T07:10:36;100497.28;;;21.07;70.85
19286;BME280;9776;50.798;6.430;2023-08-17T07:13:03;100495.66;;;21.06;71.09
19286;BME280;9776;50.798;6.430;2023-08-17T07:15:30;100502.25;;;21.10;70.90
19286;BME280;9776;50.798;6.430;2023-08-17T07:17:56;100510.50;;;21.15;70.74
19286;BME280;9776;50.798;6.430;2023-08-17T07:20:23;100508.00;;;21.20;70.67
19286;BME280;9776;50.798;6.430;2023-08-17T07:22:51;100506.31;;;21.26;70.47
19286;BME280;9776;50.798;6.430;2023-08-17T07:25:18;100498.66;;;21.29;70.45
19286;BME280;9776;50.798;6.430;2023-08-17T07:27:44;100506.34;;;21.19;70.70
19286;BME280;9776;50.798;6.430;2023-08-17T07:30:12;100498.75;;;21.10;70.96
19286;BME280;9776;50.798;6.430;2023-08-17T07:32:38;100505.16;;;21.02;71.30
19286;BME280;9776;50.798;6.430;2023-08-17T07:35:06;100517.13;;;21.00;71.33
19286;BME280;9776;50.798;6.430;2023-08-17T07:37:33;100506.00;;;20.96;71.53
19286;BME280;9776;50.798;6.430;2023-08-17T07:40:01;100519.22;;;20.91;71.48
19286;BME280;9776;50.798;6.430;2023-08-17T07:42:29;100521.75;;;20.86;71.84
19286;BME280;9776;50.798;6.430;2023-08-17T07:44:55;100513.03;;;20.90;71.96
19286;BME280;9776;50.798;6.430;2023-08-17T07:47:22;100508.50;;;20.98;71.68
19286;BME280;9776;50.798;6.430;2023-08-17T07:49:49;100510.53;;;21.02;71.60
19286;BME280;9776;50.798;6.430;2023-08-17T07:52:16;100508.44;;;21.04;71.58
19286;BME280;9776;50.798;6.430;2023-08-17T07:54:42;100520.00;;;21.11;71.43
19286;BME280;9776;50.798;6.430;2023-08-17T07:57:10;100521.19;;;21.22;71.09
19286;BME280;9776;50.798;6.430;2023-08-17T07:59:37;100523.72;;;21.17;71.25
19286;BME280;9776;50.798;6.430;2023-08-17T08:02:03;100525.81;;;21.08;71.42
19286;BME280;9776;50.798;6.430;2023-08-17T08:04:30;100526.81;;;21.07;71.53
19286;BME280;9776;50.798;6.430;2023-08-17T08:06:57;100524.53;;;21.04;71.55
19286;BME280;9776;50.798;6.430;2023-08-17T08:09:23;100516.50;;;21.11;71.25
19286;BME280;9776;50.798;6.430;2023-08-17T08:11:50;100512.72;;;21.25;70.89
19286;BME280;9776;50.798;6.430;2023-08-17T08:14:18;100514.09;;;21.40;70.43
19286;BME280;9776;50.798;6.430;2023-08-17T08:16:45;100503.88;;;21.56;69.90
19286;BME280;9776;50.798;6.430;2023-08-17T08:19:12;100511.84;;;21.69;69.65
19286;BME280;9776;50.798;6.430;2023-08-17T08:21:39;100498.13;;;21.77;69.42
19286;BME280;9776;50.798;6.430;2023-08-17T08:24:06;100507.81;;;21.84;69.19
19286;BME280;9776;50.798;6.430;2023-08-17T08:26:33;100518.91;;;21.94;68.76
19286;BME280;9776;50.798;6.430;2023-08-17T08:29:00;100516.19;;;22.01;68.59
19286;BME280;9776;50.798;6.430;2023-08-17T08:31:28;100516.03;;;21.96;68.63
19286;BME280;9776;50.798;6.430;2023-08-17T08:33:54;100519.78;;;21.88;68.82
19286;BME280;9776;50.798;6.430;2023-08-17T08:36:21;100517.94;;;21.82;68.96
19286;BME280;9776;50.798;6.430;2023-08-17T08:38:47;100514.09;;;21.72;69.12
19286;BME280;9776;50.798;6.430;2023-08-17T08:41:14;100522.16;;;21.72;69.35
19286;BME280;9776;50.798;6.430;2023-08-17T08:43:41;100529.56;;;21.76;69.09
19286;BME280;9776;50.798;6.430;2023-08-17T08:46:07;100523.53;;;21.81;69.08
19286;BME280;9776;50.798;6.430;2023-08-17T08:48:38;100519.44;;;21.78;69.07
19286;BME280;9776;50.798;6.430;2023-08-17T08:51:08;100521.56;;;21.70;69.42
19286;BME280;9776;50.798;6.430;2023-08-17T08:53:37;100518.25;;;21.68;69.44
19286;BME280;9776;50.798;6.430;2023-08-17T08:56:07;100510.88;;;21.57;69.72
19286;BME280;9776;50.798;6.430;2023-08-17T08:58:38;100514.84;;;21.47;70.10
19286;BME280;9776;50.798;6.430;2023-08-17T09:01:06;100511.53;;;21.52;70.10
19286;BME280;9776;50.798;6.430;2023-08-17T09:03:35;100505.88;;;21.67;69.70
19286;BME280;9776;50.798;6.430;2023-08-17T09:06:03;100510.69;;;21.83;69.19
19286;BME280;9776;50.798;6.430;2023-08-17T09:08:30;100507.97;;;21.96;68.88
19286;BME280;9776;50.798;6.430;2023-08-17T09:10:57;100503.47;;;21.90;68.95
19286;BME280;9776;50.798;6.430;2023-08-17T09:13:24;100509.66;;;21.84;69.13
19286;BME280;9776;50.798;6.430;2023-08-17T09:15:51;100506.19;;;21.77;69.36
19286;BME280;9776;50.798;6.430;2023-08-17T09:18:19;100503.13;;;21.73;69.41
19286;BME280;9776;50.798;6.430;2023-08-17T09:20:47;100494.84;;;21.75;69.45
19286;BME280;9776;50.798;6.430;2023-08-17T09:23:15;100497.81;;;21.67;69.57
19286;BME280;9776;50.798;6.430;2023-08-17T09:25:43;100494.69;;;21.70;69.58
19286;BME280;9776;50.798;6.430;2023-08-17T09:28:10;100491.28;;;21.81;69.34
19286;BME280;9776;50.798;6.430;2023-08-17T09:30:55;100481.34;;;21.88;69.10
19286;BME280;9776;50.798;6.430;2023-08-17T09:33:23;100477.19;;;21.92;69.07
19286;BME280;9776;50.798;6.430;2023-08-17T09:35:52;100479.75;;;22.05;68.94
19286;BME280;9776;50.798;6.430;2023-08-17T09:38:19;100489.47;;;22.06;68.73
19286;BME280;9776;50.798;6.430;2023-08-17T09:40:46;100486.19;;;22.04;68.87
19286;BME280;9776;50.798;6.430;2023-08-17T09:43:14;100490.94;;;22.02;68.92
19286;BME280;9776;50.798;6.430;2023-08-17T09:45:42;100490.13;;;22.01;69.00
19286;BME280;9776;50.798;6.430;2023-08-17T09:48:09;100487.59;;;22.07;69.00
19286;BME280;9776;50.798;6.430;2023-08-17T09:50:36;100483.75;;;22.21;68.45
19286;BME280;9776;50.798;6.430;2023-08-17T09:53:04;100480.56;;;22.30;68.05
19286;BME280;9776;50.798;6.430;2023-08-17T09:55:31;100487.44;;;22.44;67.62
19286;BME280;9776;50.798;6.430;2023-08-17T09:57:59;100479.31;;;22.51;67.29
19286;BME280;9776;50.798;6.430;2023-08-17T10:00:27;100480.28;;;22.56;67.17
19286;BME280;9776;50.798;6.430;2023-08-17T10:02:55;100472.38;;;22.61;67.02
19286;BME280;9776;50.798;6.430;2023-08-17T10:05:26;100476.53;;;22.57;67.08
19286;BME280;9776;50.798;6.430;2023-08-17T10:07:57;100481.09;;;22.57;67.03
19286;BME280;9776;50.798;6.430;2023-08-17T10:10:26;100478.94;;;22.66;66.88
19286;BME280;9776;50.798;6.430;2023-08-17T10:13:01;100476.78;;;22.74;66.21
19286;BME280;9776;50.798;6.430;2023-08-17T10:15:33;100484.78;;;22.81;66.30
19286;BME280;9776;50.798;6.430;2023-08-17T10:18:08;100482.84;;;22.88;66.06
19286;BME280;9776;50.798;6.430;2023-08-17T10:20:36;100475.16;;;22.91;65.91
19286;BME280;9776;50.798;6.430;2023-08-17T10:23:12;100476.41;;;22.89;66.06
19286;BME280;9776;50.798;6.430;2023-08-17T10:25:42;100484.41;;;22.77;66.08
19286;BME280;9776;50.798;6.430;2023-08-17T10:28:09;100490.91;;;22.70;66.57
19286;BME280;9776;50.798;6.430;2023-08-17T10:30:36;100484.78;;;22.63;66.66
19286;BME280;9776;50.798;6.430;2023-08-17T10:33:05;100482.97;;;22.56;66.84
19286;BME280;9776;50.798;6.430;2023-08-17T10:35:33;100477.59;;;22.56;66.85
19286;BME280;9776;50.798;6.430;2023-08-17T10:38:00;100480.88;;;22.58;66.97
19286;BME280;9776;50.798;6.430;2023-08-17T10:40:34;100493.63;;;22.70;66.72
19286;BME280;9776;50.798;6.430;2023-08-17T10:43:03;100490.16;;;22.81;66.38
19286;BME280;9776;50.798;6.430;2023-08-17T10:45:30;100491.75;;;22.88;65.95
19286;BME280;9776;50.798;6.430;2023-08-17T10:48:25;100495.25;;;22.89;65.82
19286;BME280;9776;50.798;6.430;2023-08-17T10:51:03;100502.66;;;22.93;65.67
19286;BME280;9776;50.798;6.430;2023-08-17T10:53:37;100485.59;;;22.99;65.54
19286;BME280;9776;50.798;6.430;2023-08-17T10:56:11;100481.19;;;23.05;65.47
19286;BME280;9776;50.798;6.430;2023-08-17T10:58:39;100489.56;;;22.97;65.74
19286;BME280;9776;50.798;6.430;2023-08-17T11:01:08;100492.41;;;23.02;65.50
19286;BME280;9776;50.798;6.430;2023-08-17T11:03:35;100489.97;;;23.12;65.50
19286;BME280;9776;50.798;6.430;2023-08-17T11:06:17;100502.00;;;23.28;64.98
19286;BME280;9776;50.798;6.430;2023-08-17T11:08:54;100497.28;;;23.41;64.34
19286;BME280;9776;50.798;6.430;2023-08-17T11:11:22;100496.81;;;23.44;64.45
19286;BME280;9776;50.798;6.430;2023-08-17T11:13:52;100499.97;;;23.41;64.31
19286;BME280;9776;50.798;6.430;2023-08-17T11:16:19;100497.72;;;23.38;64.25
19286;BME280;9776;50.798;6.430;2023-08-17T11:18:46;100499.81;;;23.36;64.40
19286;BME280;9776;50.798;6.430;2023-08-17T11:21:14;100496.16;;;23.49;64.29
19286;BME280;9776;50.798;6.430;2023-08-17T11:23:41;100497.59;;;23.63;63.71
19286;BME280;9776;50.798;6.430;2023-08-17T11:26:08;100501.38;;;23.73;63.40
19286;BME280;9776;50.798;6.430;2023-08-17T11:28:35;100508.28;;;23.81;63.31
19286;BME280;9776;50.798;6.430;2023-08-17T11:31:06;100504.44;;;23.89;62.76
19286;BME280;9776;50.798;6.430;2023-08-17T11:33:34;100507.97;;;23.89;62.90
19286;BME280;9776;50.798;6.430;2023-08-17T11:36:02;100515.34;;;23.94;62.63
19286;BME280;9776;50.798;6.430;2023-08-17T11:38:31;100515.22;;;23.89;62.59
19286;BME280;9776;50.798;6.430;2023-08-17T11:40:58;100515.34;;;23.94;62.52
19286;BME280;9776;50.798;6.430;2023-08-17T11:43:25;100519.94;;;24.05;62.22
19286;BME280;9776;50.798;6.430;2023-08-17T11:45:52;100514.00;;;24.14;61.94
19286;BME280;9776;50.798;6.430;2023-08-17T11:48:20;100506.38;;;24.23;61.91
19286;BME280;9776;50.798;6.430;2023-08-17T11:50:47;100506.75;;;24.15;62.06
19286;BME280;9776;50.798;6.430;2023-08-17T11:53:14;100508.97;;;24.18;62.07
19286;BME280;9776;50.798;6.430;2023-08-17T11:55:41;100506.84;;;24.20;62.01
19286;BME280;9776;50.798;6.430;2023-08-17T11:58:07;100507.78;;;24.14;61.99
19286;BME280;9776;50.798;6.430;2023-08-17T12:00:35;100504.03;;;24.15;62.30
19286;BME280;9776;50.798;6.430;2023-08-17T12:03:03;100501.09;;;24.16;62.16
19286;BME280;9776;50.798;6.430;2023-08-17T12:05:32;100504.63;;;24.17;62.03
19286;BME280;9776;50.798;6.430;2023-08-17T12:07:59;100506.75;;;24.15;62.09
19286;BME280;9776;50.798;6.430;2023-08-17T12:10:27;100506.13;;;24.13;62.00
19286;BME280;9776;50.798;6.430;2023-08-17T12:12:57;100502.84;;;24.11;61.92
19286;BME280;9776;50.798;6.430;2023-08-17T12:15:24;100503.28;;;24.08;62.22
19286;BME280;9776;50.798;6.430;2023-08-17T12:17:51;100507.28;;;24.05;62.12
19286;BME280;9776;50.798;6.430;2023-08-17T12:20:19;100506.69;;;24.03;62.11
19286;BME280;9776;50.798;6.430;2023-08-17T12:22:47;100505.75;;;23.98;62.29
19286;BME280;9776;50.798;6.430;2023-08-17T12:25:14;100511.81;;;23.93;62.49
19286;BME280;9776;50.798;6.430;2023-08-17T12:27:41;100510.66;;;23.89;62.54
19286;BME280;9776;50.798;6.430;2023-08-17T12:30:23;100505.50;;;23.88;62.38
19286;BME280;9776;50.798;6.430;2023-08-17T12:32:50;100500.81;;;23.83;62.50
19286;BME280;9776;50.798;6.430;2023-08-17T12:35:16;100490.34;;;23.87;62.57
19286;BME280;9776;50.798;6.430;2023-08-17T12:37:44;100495.06;;;23.91;62.60
19286;BME280;9776;50.798;6.430;2023-08-17T12:40:12;100489.78;;;23.96;62.37
19286;BME280;9776;50.798;6.430;2023-08-17T12:42:39;100493.31;;;23.97;62.46
19286;BME280;9776;50.798;6.430;2023-08-17T12:45:06;100489.69;;;24.03;62.15
19286;BME280;9776;50.798;6.430;2023-08-17T12:47:33;100495.19;;;24.08;62.27
19286;BME280;9776;50.798;6.430;2023-08-17T12:49:59;100486.22;;;24.14;62.11
19286;BME280;9776;50.798;6.430;2023-08-17T12:52:27;100484.22;;;24.33;61.68
19286;BME280;9776;50.798;6.430;2023-08-17T12:54:54;100483.97;;;24.57;61.05
19286;BME280;9776;50.798;6.430;2023-08-17T12:57:22;100478.56;;;24.80;60.52
19286;BME280;9776;50.798;6.430;2023-08-17T12:59:49;100473.31;;;25.02;60.02
19286;BME280;9776;50.798;6.430;2023-08-17T13:02:16;100470.94;;;25.34;59.17